< < Back
Terminal Aerodrome Forecast


Current Version              Previous Versions:   1  2  3  4  5  6  7  8  9  

Terminal Aerodrome Forecast

125
FTUS44 KMOB 291723
TAFMOB
TAF
KMOB 291723Z 2918/3018 VRB04KT P6SM VCTS SCT020CB BKN120 BKN200
      TEMPO 2918/2922 VRB15G25KT 3SM TSRA BKN030CB
     FM292300 18003KT P6SM VCTS BKN050CB BKN150
     FM300300 VRB02KT P6SM OVC250
     FM301200 00000KT P6SM VCTS FEW035CB BKN250=



Latest METAR

077
SAUS80 KWBC 302224
MTRMOB
METAR KMOB 302156Z COR 16009KT 10SM SCT040TCU SCT200 31/22 A2993 RMK AO2
SLP132 TCU NW CB DSNT NW-N-NE AND E T03060222


USA.gov is the U.S. government's official web portal to all federal, state and local government web resources and services.